Time;durP1;ratioP1;P1;durP2;ratioP2;P2;SDS_P1;SDS_P2;PMS_P1;PMS_P2;Temp;Humidity;BMP_temperature;BMP_pressure;BME280_temperature;BME280_humidity;BME280_pressure;Samples;Min_cycle;Max_cycle;Signal;HPM_P1;HPM_P2
2021/10/11 00:00:30;;;;;;;13.50;9.68;;;10.90;99.90;;;;;;5051983;28;20024;-79
2021/10/11 00:02:56;;;;;;;16.42;10.27;;;10.90;99.90;;;;;;5051803;28;20578;-79
2021/10/11 00:05:22;;;;;;;14.05;9.52;;;10.80;99.90;;;;;;5051738;28;20540;-79
2021/10/11 00:07:48;;;;;;;15.93;9.35;;;10.90;99.90;;;;;;5051832;28;20548;-79
2021/10/11 00:10:20;;;;;;;14.60;9.40;;;10.90;99.90;;;;;;5050424;28;20025;-80
2021/10/11 00:12:51;;;;;;;16.40;9.95;;;10.90;99.90;;;;;;5050388;28;20032;-79
2021/10/11 00:15:19;;;;;;;14.13;9.98;;;10.90;99.90;;;;;;5051468;28;20029;-80
2021/10/11 00:17:45;;;;;;;16.25;9.75;;;10.80;99.90;;;;;;5050487;28;20025;-79
2021/10/11 00:20:11;;;;;;;13.48;9.20;;;10.80;99.90;;;;;;5051048;28;20028;-79
2021/10/11 00:22:38;;;;;;;13.93;8.93;;;10.70;99.90;;;;;;5051650;28;20021;-79
2021/10/11 00:25:06;;;;;;;15.05;10.70;;;10.70;99.90;;;;;;5051695;28;20048;-79
2021/10/11 00:27:33;;;;;;;14.07;9.15;;;10.70;99.90;;;;;;5050321;28;20033;-80
2021/10/11 00:29:59;;;;;;;12.60;9.07;;;10.80;99.90;;;;;;5051471;28;20154;-79
2021/10/11 00:32:26;;;;;;;14.27;8.90;;;10.70;99.90;;;;;;5051287;28;20131;-79
2021/10/11 00:34:51;;;;;;;13.90;10.07;;;10.70;99.90;;;;;;5051168;28;20497;-79
2021/10/11 00:37:17;;;;;;;14.90;9.73;;;10.70;99.90;;;;;;5051313;28;20025;-79
2021/10/11 00:39:43;;;;;;;10.60;8.88;;;10.70;99.90;;;;;;5046357;28;20525;-79
2021/10/11 00:42:09;;;;;;;16.88;8.48;;;10.70;99.90;;;;;;5031524;28;20032;-79
2021/10/11 00:44:35;;;;;;;17.85;9.23;;;10.70;99.90;;;;;;5030004;28;20025;-79
2021/10/11 00:47:01;;;;;;;12.77;9.43;;;10.70;99.90;;;;;;5031514;28;20534;-79
2021/10/11 00:49:26;;;;;;;13.07;8.43;;;10.70;99.90;;;;;;5062975;28;20026;-79
2021/10/11 00:51:52;;;;;;;13.23;9.32;;;10.60;99.90;;;;;;5031332;28;20116;-79
2021/10/11 00:54:18;;;;;;;12.48;8.85;;;10.60;99.90;;;;;;5031280;28;20088;-79
2021/10/11 00:56:45;;;;;;;13.05;9.38;;;10.60;99.90;;;;;;5031301;28;20029;-79
2021/10/11 00:59:11;;;;;;;16.33;9.80;;;10.50;99.90;;;;;;5031183;28;20022;-79
2021/10/11 01:01:37;;;;;;;16.67;9.15;;;10.60;99.90;;;;;;5030069;28;20060;-80
2021/10/11 01:04:06;;;;;;;14.27;9.57;;;10.60;99.90;;;;;;5039060;28;20029;-79
2021/10/11 01:06:38;;;;;;;12.55;8.65;;;10.60;99.90;;;;;;5049809;28;20052;-79
2021/10/11 01:09:05;;;;;;;12.55;8.60;;;10.60;99.90;;;;;;5051086;28;20025;-79
2021/10/11 01:11:31;;;;;;;13.50;8.65;;;10.60;99.90;;;;;;5049903;28;20054;-79
2021/10/11 01:13:57;;;;;;;12.95;8.57;;;10.60;99.90;;;;;;5050974;28;20120;-79
2021/10/11 01:16:22;;;;;;;13.60;9.90;;;10.70;99.90;;;;;;5049644;28;20115;-79
2021/10/11 01:18:48;;;;;;;14.85;9.82;;;10.60;99.90;;;;;;5051128;28;20505;-79
2021/10/11 01:21:14;;;;;;;10.20;8.05;;;10.60;99.90;;;;;;5051096;28;20477;-79
2021/10/11 01:23:40;;;;;;;12.80;8.88;;;10.60;99.90;;;;;;5050901;28;20033;-79
2021/10/11 01:26:05;;;;;;;12.10;9.02;;;10.70;99.90;;;;;;5050999;28;20033;-79
2021/10/11 01:28:31;;;;;;;11.80;9.25;;;10.70;99.90;;;;;;5050840;28;20391;-80
2021/10/11 01:30:57;;;;;;;11.80;9.18;;;10.60;99.90;;;;;;5049525;28;20029;-79
2021/10/11 01:33:23;;;;;;;14.10;9.25;;;10.60;99.90;;;;;;5053509;28;20048;-79
2021/10/11 01:35:48;;;;;;;14.52;9.50;;;10.60;99.90;;;;;;5054582;28;20017;-79
2021/10/11 01:38:14;;;;;;;10.98;8.40;;;10.60;99.90;;;;;;5054763;28;20153;-79
2021/10/11 01:40:40;;;;;;;16.25;10.02;;;10.60;99.90;;;;;;5053890;28;20511;-79
2021/10/11 01:43:07;;;;;;;14.70;9.57;;;10.50;99.90;;;;;;5053247;28;20036;-79
2021/10/11 01:45:33;;;;;;;12.32;9.38;;;10.50;99.90;;;;;;5053150;28;20056;-79
2021/10/11 01:47:59;;;;;;;16.90;10.30;;;10.50;99.90;;;;;;5055203;28;20118;-80
2021/10/11 01:50:25;;;;;;;16.77;9.10;;;10.60;99.90;;;;;;5054555;28;20033;-79
2021/10/11 01:52:51;;;;;;;16.80;9.38;;;10.60;99.90;;;;;;5054329;28;20099;-79
2021/10/11 01:55:17;;;;;;;12.57;9.32;;;10.70;99.90;;;;;;5052956;28;20130;-79
2021/10/11 01:57:42;;;;;;;11.40;8.85;;;10.70;99.90;;;;;;5054277;28;20017;-79
2021/10/11 02:00:09;;;;;;;19.30;9.52;;;10.70;99.90;;;;;;5052818;28;20075;-79
2021/10/11 02:02:35;;;;;;;14.77;9.30;;;10.70;99.90;;;;;;5054315;28;20017;-79
2021/10/11 02:05:02;;;;;;;13.50;8.98;;;10.60;99.90;;;;;;5054044;28;20044;-80
2021/10/11 02:07:28;;;;;;;16.60;10.18;;;10.60;99.90;;;;;;5054025;28;20029;-79
2021/10/11 02:09:53;;;;;;;14.82;10.00;;;10.60;99.90;;;;;;5055457;28;20029;-79
2021/10/11 02:12:19;;;;;;;13.73;9.43;;;10.60;99.90;;;;;;5055506;28;20104;-79
2021/10/11 02:14:45;;;;;;;14.80;10.23;;;10.60;99.90;;;;;;5055158;28;20067;-79
2021/10/11 02:17:11;;;;;;;13.05;9.15;;;10.60;99.90;;;;;;5055385;28;20032;-80
2021/10/11 02:19:36;;;;;;;14.20;9.75;;;10.60;99.90;;;;;;5054004;28;20431;-79
2021/10/11 02:22:03;;;;;;;14.85;9.25;;;10.60;99.90;;;;;;5055331;28;20025;-80
2021/10/11 02:24:28;;;;;;;19.60;9.30;;;10.60;99.90;;;;;;5055237;28;20024;-79
2021/10/11 02:26:54;;;;;;;13.25;9.73;;;10.60;99.90;;;;;;5055278;28;20029;-80
2021/10/11 02:29:20;;;;;;;17.63;10.13;;;10.60;99.90;;;;;;5053163;28;20065;-80
2021/10/11 02:31:46;;;;;;;15.75;10.32;;;10.60;99.90;;;;;;5053972;28;20115;-80
2021/10/11 02:34:11;;;;;;;13.75;9.23;;;10.60;99.90;;;;;;5053570;28;20171;-80
2021/10/11 02:36:37;;;;;;;16.73;9.60;;;10.60;99.90;;;;;;5052569;28;20035;-79
2021/10/11 02:39:03;;;;;;;21.10;10.55;;;10.60;99.90;;;;;;5053977;28;20036;-79
2021/10/11 02:41:29;;;;;;;14.10;9.73;;;10.60;99.90;;;;;;5053775;28;20027;-79
2021/10/11 02:43:55;;;;;;;14.32;10.45;;;10.60;99.90;;;;;;5051776;28;20033;-79
2021/10/11 02:46:21;;;;;;;13.60;9.20;;;10.70;99.90;;;;;;5052425;28;20067;-79
2021/10/11 02:48:46;;;;;;;12.30;9.40;;;10.70;99.90;;;;;;5052277;28;20032;-79
2021/10/11 02:51:12;;;;;;;13.43;10.07;;;10.70;99.90;;;;;;5053363;28;20029;-79
2021/10/11 02:53:38;;;;;;;16.20;10.13;;;10.70;99.90;;;;;;5036239;28;20033;-80
2021/10/11 02:56:04;;;;;;;13.18;9.50;;;10.70;99.90;;;;;;5033383;28;20039;-79
2021/10/11 02:58:29;;;;;;;12.10;8.93;;;10.70;99.90;;;;;;5032029;28;20422;-79
2021/10/11 03:00:55;;;;;;;18.85;10.40;;;10.70;99.90;;;;;;5033281;28;20068;-79
2021/10/11 03:03:21;;;;;;;14.88;9.50;;;10.70;99.90;;;;;;5035745;28;20033;-79
2021/10/11 03:05:46;;;;;;;13.60;9.65;;;10.80;99.90;;;;;;5053859;28;20066;-79
2021/10/11 03:08:12;;;;;;;14.45;9.45;;;10.80;99.90;;;;;;5052380;28;20028;-79
2021/10/11 03:10:38;;;;;;;19.42;9.13;;;10.70;99.90;;;;;;5054261;28;20036;-79
2021/10/11 03:13:03;;;;;;;14.05;9.88;;;10.70;99.90;;;;;;5052983;28;20025;-79
2021/10/11 03:15:29;;;;;;;12.13;9.38;;;10.80;99.90;;;;;;5051474;28;20025;-79
2021/10/11 03:17:55;;;;;;;15.77;9.45;;;10.80;99.90;;;;;;5051783;28;20398;-79
2021/10/11 03:20:20;;;;;;;14.20;9.57;;;10.80;99.90;;;;;;5051534;28;20057;-79
2021/10/11 03:22:46;;;;;;;16.00;9.80;;;10.80;99.90;;;;;;5052688;28;20390;-79
2021/10/11 03:25:12;;;;;;;12.88;9.40;;;10.80;99.90;;;;;;5051446;28;20029;-79
2021/10/11 03:27:37;;;;;;;13.75;9.30;;;10.80;99.90;;;;;;5052638;28;20029;-79
2021/10/11 03:30:04;;;;;;;13.18;9.93;;;10.80;99.90;;;;;;5052580;28;20483;-79
2021/10/11 03:32:29;;;;;;;13.23;10.07;;;10.80;99.90;;;;;;5052522;28;20044;-79
2021/10/11 03:34:55;;;;;;;14.52;10.07;;;10.80;99.90;;;;;;5051146;28;20029;-79
2021/10/11 03:37:21;;;;;;;14.13;9.45;;;10.80;99.90;;;;;;5052624;28;20021;-79
2021/10/11 03:39:46;;;;;;;17.58;11.07;;;10.80;99.90;;;;;;5051104;28;20025;-80
2021/10/11 03:42:12;;;;;;;16.23;10.52;;;10.80;99.90;;;;;;5051038;28;20036;-79
2021/10/11 03:44:38;;;;;;;16.60;9.93;;;10.80;99.90;;;;;;5052342;28;20028;-79
2021/10/11 03:47:03;;;;;;;13.60;10.18;;;10.90;99.90;;;;;;5052357;28;20025;-79
2021/10/11 03:49:29;;;;;;;15.88;10.55;;;10.80;99.90;;;;;;5050928;28;20502;-80
2021/10/11 03:51:55;;;;;;;15.57;10.82;;;10.90;99.90;;;;;;5052299;28;20029;-79
2021/10/11 03:54:20;;;;;;;15.00;10.40;;;10.80;99.90;;;;;;5050264;28;20491;-79
2021/10/11 03:56:46;;;;;;;14.90;9.95;;;10.80;99.90;;;;;;5050428;28;20491;-79
2021/10/11 03:59:12;;;;;;;15.63;10.65;;;10.80;99.90;;;;;;5050921;28;20032;-79
2021/10/11 04:01:38;;;;;;;17.58;10.05;;;10.70;99.90;;;;;;5052035;28;20025;-79
2021/10/11 04:04:06;;;;;;;15.30;10.48;;;10.70;99.90;;;;;;5051865;28;20017;-79
2021/10/11 04:06:32;;;;;;;14.43;10.20;;;10.70;99.90;;;;;;5050818;28;20017;-79
2021/10/11 04:08:59;;;;;;;15.20;10.90;;;10.70;99.90;;;;;;5050559;28;20036;-79
2021/10/11 04:11:25;;;;;;;14.25;9.32;;;10.70;99.90;;;;;;5050504;28;20107;-79
2021/10/11 04:13:51;;;;;;;12.00;9.38;;;10.80;99.90;;;;;;5051739;28;20550;-80
2021/10/11 04:16:17;;;;;;;14.63;10.15;;;10.80;99.90;;;;;;5051770;28;20028;-80
2021/10/11 04:18:43;;;;;;;14.45;10.52;;;10.80;99.90;;;;;;5051713;28;20025;-79
2021/10/11 04:21:09;;;;;;;12.05;10.23;;;10.80;99.90;;;;;;5051989;28;20053;-80
2021/10/11 04:23:36;;;;;;;13.63;9.73;;;10.80;99.90;;;;;;5051587;28;20079;-79
2021/10/11 04:26:02;;;;;;;12.18;9.10;;;10.70;99.90;;;;;;5051731;28;20051;-80
2021/10/11 04:28:28;;;;;;;15.45;9.68;;;10.70;99.90;;;;;;5050345;28;20060;-80
2021/10/11 04:30:54;;;;;;;10.98;8.50;;;10.70;99.90;;;;;;5051723;28;20074;-80
2021/10/11 04:33:23;;;;;;;10.95;8.18;;;10.70;99.90;;;;;;5048101;28;20033;-79
2021/10/11 04:35:49;;;;;;;13.55;8.57;;;10.70;99.90;;;;;;5030398;28;20028;-79
2021/10/11 04:38:15;;;;;;;10.02;7.72;;;10.70;99.90;;;;;;5031417;28;20025;-79
2021/10/11 04:40:41;;;;;;;10.80;7.75;;;10.70;99.90;;;;;;5031649;28;20589;-79
2021/10/11 04:43:07;;;;;;;8.80;7.53;;;10.70;99.90;;;;;;5063702;28;20526;-80
2021/10/11 04:45:33;;;;;;;9.98;7.45;;;10.60;99.90;;;;;;5031315;28;20033;-79
2021/10/11 04:48:10;;;;;;;10.10;7.35;;;10.50;99.90;;;;;;5031210;28;20171;-79
2021/10/11 04:50:39;;;;;;;8.77;6.45;;;10.40;99.90;;;;;;5031922;28;20025;-79
2021/10/11 04:53:23;;;;;;;10.52;6.43;;;10.40;99.90;;;;;;5030138;28;20032;-79
2021/10/11 04:55:49;;;;;;;5.95;5.38;;;10.40;99.90;;;;;;5029995;28;20026;-80
2021/10/11 04:58:15;;;;;;;8.00;5.63;;;10.40;99.90;;;;;;5019550;28;20409;-79
2021/10/11 05:00:41;;;;;;;7.35;5.97;;;10.40;99.90;;;;;;5027848;28;20093;-79
2021/10/11 05:03:06;;;;;;;6.13;5.53;;;10.50;99.90;;;;;;5012113;28;20392;-79
2021/10/11 05:05:32;;;;;;;10.57;5.22;;;10.50;99.90;;;;;;5032145;28;20021;-79
2021/10/11 05:07:59;;;;;;;5.82;5.22;;;10.50;99.90;;;;;;5036260;28;20025;-79
2021/10/11 05:10:25;;;;;;;7.05;5.10;;;10.40;99.90;;;;;;5035133;28;20022;-79
2021/10/11 05:12:51;;;;;;;5.88;5.05;;;10.40;99.90;;;;;;5035906;28;20509;-79
2021/10/11 05:15:16;;;;;;;5.30;4.30;;;10.30;99.90;;;;;;5034672;28;20021;-79
2021/10/11 05:17:43;;;;;;;4.95;4.05;;;10.40;99.90;;;;;;5035803;28;20167;-79
2021/10/11 05:20:10;;;;;;;4.07;3.63;;;10.30;99.90;;;;;;5034722;28;20064;-79
2021/10/11 05:22:36;;;;;;;5.85;3.83;;;10.40;99.90;;;;;;5036621;28;20022;-79
2021/10/11 05:25:03;;;;;;;6.13;3.53;;;10.40;99.90;;;;;;5036571;28;20021;-79
2021/10/11 05:27:29;;;;;;;6.38;3.28;;;10.40;99.90;;;;;;5035059;28;20466;-79
2021/10/11 05:29:55;;;;;;;5.95;3.30;;;10.40;99.90;;;;;;5034775;28;20112;-79
2021/10/11 05:32:21;;;;;;;3.50;3.20;;;10.50;99.90;;;;;;5035824;28;20029;-79
2021/10/11 05:34:47;;;;;;;5.47;3.05;;;10.60;99.90;;;;;;5033892;28;20075;-79
2021/10/11 05:37:13;;;;;;;4.28;3.13;;;10.60;99.90;;;;;;5034031;28;20491;-79
2021/10/11 05:39:40;;;;;;;3.33;2.90;;;10.60;99.90;;;;;;5033665;28;20020;-79
2021/10/11 05:42:08;;;;;;;4.80;3.10;;;10.60;99.90;;;;;;5034694;28;20021;-79
2021/10/11 05:44:34;;;;;;;3.70;2.72;;;10.70;99.90;;;;;;5034512;28;20487;-79
2021/10/11 05:47:00;;;;;;;6.90;3.17;;;10.70;99.90;;;;;;5034667;28;20484;-79
2021/10/11 05:49:26;;;;;;;2.35;2.20;;;10.70;99.90;;;;;;5033225;28;20394;-79
2021/10/11 05:51:51;;;;;;;3.70;2.65;;;10.80;99.90;;;;;;5034515;28;20117;-79
2021/10/11 05:54:17;;;;;;;2.60;2.40;;;10.70;99.90;;;;;;5033078;28;20041;-79
2021/10/11 05:56:43;;;;;;;3.22;2.90;;;10.80;99.90;;;;;;5033183;28;20388;-79
2021/10/11 05:59:09;;;;;;;4.07;2.30;;;10.80;99.90;;;;;;5034187;28;20060;-79
2021/10/11 06:01:34;;;;;;;2.83;2.63;;;10.90;99.90;;;;;;5034407;28;20431;-79
2021/10/11 06:04:00;;;;;;;2.40;2.30;;;10.90;99.90;;;;;;5034143;28;20156;-79
2021/10/11 06:06:26;;;;;;;2.63;2.42;;;10.90;99.90;;;;;;5032962;28;20022;-79
2021/10/11 06:08:51;;;;;;;3.65;2.47;;;10.90;99.90;;;;;;5034110;28;20049;-79
2021/10/11 06:11:18;;;;;;;3.55;2.60;;;10.90;99.90;;;;;;5034011;28;20033;-79
2021/10/11 06:13:44;;;;;;;5.43;2.58;;;10.90;99.90;;;;;;5033910;28;20467;-79
2021/10/11 06:16:10;;;;;;;7.72;2.70;;;10.90;99.90;;;;;;5032881;28;20022;-79
2021/10/11 06:18:36;;;;;;;3.95;2.50;;;10.90;99.90;;;;;;5031690;28;20036;-79
2021/10/11 06:21:02;;;;;;;4.72;3.08;;;11.00;99.90;;;;;;5033999;28;20026;-79
2021/10/11 06:23:27;;;;;;;5.32;2.97;;;11.10;99.90;;;;;;5033986;28;20026;-80
2021/10/11 06:25:53;;;;;;;3.90;2.80;;;11.10;99.90;;;;;;5033988;28;20040;-79
2021/10/11 06:28:19;;;;;;;3.30;2.50;;;11.20;99.90;;;;;;5033927;28;20029;-79
2021/10/11 06:30:46;;;;;;;3.30;2.42;;;11.30;99.90;;;;;;5033793;28;20025;-79
2021/10/11 06:33:16;;;;;;;2.72;2.50;;;11.40;99.90;;;;;;5033222;28;20549;-79
2021/10/11 06:35:42;;;;;;;4.22;3.38;;;11.50;99.90;;;;;;5025044;28;20060;-79
2021/10/11 06:38:08;;;;;;;2.92;2.72;;;11.50;99.90;;;;;;5024179;28;20022;-79
2021/10/11 06:40:34;;;;;;;5.20;2.35;;;11.50;99.90;;;;;;5022742;28;20025;-79
2021/10/11 06:43:03;;;;;;;3.47;2.40;;;11.60;99.90;;;;;;5024046;28;20018;-79
2021/10/11 06:45:29;;;;;;;2.88;2.50;;;11.60;99.90;;;;;;5025413;28;20021;-79
2021/10/11 06:47:55;;;;;;;4.18;2.03;;;11.70;99.80;;;;;;5023970;28;20018;-79
2021/10/11 06:50:21;;;;;;;4.85;2.97;;;11.70;99.60;;;;;;5022243;28;20109;-79
2021/10/11 06:52:46;;;;;;;5.15;2.67;;;11.80;99.90;;;;;;5034390;28;20067;-79
2021/10/11 06:55:12;;;;;;;4.10;3.47;;;11.80;99.90;;;;;;5034375;28;20492;-79
2021/10/11 06:57:38;;;;;;;4.30;3.28;;;11.80;99.90;;;;;;5034617;28;20022;-79
2021/10/11 07:00:04;;;;;;;6.93;3.85;;;11.80;99.90;;;;;;5034428;28;20026;-79
2021/10/11 07:02:31;;;;;;;9.45;5.05;;;11.80;99.90;;;;;;5025719;28;20026;-79
2021/10/11 07:04:58;;;;;;;5.15;3.90;;;11.90;99.90;;;;;;5023887;28;20446;-79
2021/10/11 07:07:28;;;;;;;5.28;4.00;;;11.90;99.90;;;;;;5023597;28;20037;-79
2021/10/11 07:09:54;;;;;;;7.05;5.28;;;11.90;99.90;;;;;;5023103;28;20022;-79
2021/10/11 07:12:19;;;;;;;7.50;6.35;;;12.10;99.90;;;;;;5022209;28;20036;-77
2021/10/11 07:14:45;;;;;;;9.13;6.57;;;12.10;99.90;;;;;;5022303;28;20029;-77
2021/10/11 07:17:12;;;;;;;7.78;6.28;;;12.10;99.90;;;;;;5022050;28;20029;-77
2021/10/11 07:19:43;;;;;;;10.68;6.32;;;12.10;99.90;;;;;;5020978;28;20819;-77
2021/10/11 07:22:09;;;;;;;8.45;6.20;;;12.10;99.90;;;;;;5022054;28;20022;-78
2021/10/11 07:24:34;;;;;;;10.32;5.75;;;12.10;99.90;;;;;;5023714;28;20084;-79
2021/10/11 07:27:00;;;;;;;8.68;6.03;;;12.10;99.90;;;;;;5022236;28;20460;-79
2021/10/11 07:29:29;;;;;;;8.40;6.72;;;12.10;99.90;;;;;;5023303;28;20033;-79
2021/10/11 07:31:55;;;;;;;8.60;7.10;;;12.20;99.90;;;;;;5022361;28;20580;-79
2021/10/11 07:34:22;;;;;;;9.88;6.93;;;12.20;99.90;;;;;;5027831;28;20088;-79
2021/10/11 07:36:48;;;;;;;9.35;6.00;;;12.20;99.90;;;;;;5024090;22;20058;-79
2021/10/11 07:39:13;;;;;;;9.82;6.82;;;12.30;99.90;;;;;;5012129;28;20022;-79
2021/10/11 07:41:39;;;;;;;9.63;7.63;;;12.30;99.90;;;;;;5011804;28;20052;-79
2021/10/11 07:44:05;;;;;;;10.63;7.80;;;12.40;99.90;;;;;;5012072;28;20021;-79
2021/10/11 07:46:31;;;;;;;14.93;8.00;;;12.40;99.90;;;;;;5012094;28;20018;-79
2021/10/11 07:48:56;;;;;;;12.10;8.80;;;12.40;99.90;;;;;;5019084;28;20209;-79
2021/10/11 07:51:22;;;;;;;11.90;8.60;;;12.40;99.90;;;;;;5012603;28;20105;-79
2021/10/11 07:53:48;;;;;;;16.92;10.13;;;12.50;99.90;;;;;;5011057;28;20113;-79
2021/10/11 07:56:14;;;;;;;13.35;9.68;;;12.50;99.90;;;;;;5012399;28;20479;-79
2021/10/11 07:58:39;;;;;;;15.93;9.40;;;12.60;99.90;;;;;;5012529;28;20022;-79
2021/10/11 08:01:05;;;;;;;13.20;9.40;;;12.60;99.90;;;;;;5010829;28;20026;-79
2021/10/11 08:03:31;;;;;;;12.98;9.57;;;12.70;99.90;;;;;;5011935;28;20426;-79
2021/10/11 08:05:59;;;;;;;14.00;9.20;;;12.70;99.90;;;;;;5011746;28;20075;-79
2021/10/11 08:08:25;;;;;;;14.60;9.75;;;12.80;99.90;;;;;;5011665;28;20029;-80
2021/10/11 08:10:50;;;;;;;16.75;10.35;;;12.80;99.90;;;;;;5011651;28;20380;-79
2021/10/11 08:13:17;;;;;;;17.45;9.45;;;12.90;99.90;;;;;;5011612;28;20026;-79
2021/10/11 08:15:42;;;;;;;14.05;9.70;;;12.90;99.90;;;;;;5011603;28;20026;-80
2021/10/11 08:18:08;;;;;;;14.52;8.85;;;12.90;99.90;;;;;;5018603;28;20028;-79
2021/10/11 08:20:36;;;;;;;10.02;7.15;;;12.90;99.90;;;;;;5011702;28;20014;-79
2021/10/11 08:23:02;;;;;;;7.82;6.50;;;13.00;99.90;;;;;;5011357;28;20105;-79
2021/10/11 08:25:28;;;;;;;15.93;7.80;;;13.00;99.90;;;;;;5010219;28;20113;-79
2021/10/11 08:27:54;;;;;;;12.52;8.00;;;13.00;99.90;;;;;;5010162;28;20026;-79
2021/10/11 08:30:19;;;;;;;13.45;8.85;;;13.00;99.90;;;;;;5011442;28;20026;-79
2021/10/11 08:32:45;;;;;;;12.23;9.30;;;13.20;99.90;;;;;;5011399;28;20040;-79
2021/10/11 08:35:13;;;;;;;14.23;9.55;;;13.20;99.90;;;;;;5011041;28;20026;-79
2021/10/11 08:37:39;;;;;;;14.57;9.82;;;13.20;99.90;;;;;;5011225;28;20096;-79
2021/10/11 08:40:05;;;;;;;13.52;9.20;;;13.30;99.90;;;;;;5009807;28;20277;-79
2021/10/11 08:42:31;;;;;;;14.13;8.98;;;13.40;99.90;;;;;;5010866;28;20022;-79
2021/10/11 08:44:57;;;;;;;11.18;8.80;;;13.40;99.90;;;;;;5010946;28;20105;-79
2021/10/11 08:47:23;;;;;;;12.20;8.52;;;13.50;99.90;;;;;;5011353;28;20041;-79
2021/10/11 08:49:50;;;;;;;10.05;7.63;;;13.60;99.90;;;;;;5006690;28;20022;-79
2021/10/11 08:52:21;;;;;;;12.43;6.95;;;13.60;99.90;;;;;;5007937;28;20060;-79
2021/10/11 08:54:51;;;;;;;11.18;6.72;;;13.60;99.90;;;;;;5004895;28;20391;-79
2021/10/11 08:57:33;;;;;;;11.23;6.90;;;13.60;99.90;;;;;;5011268;28;20026;-79
2021/10/11 09:00:18;;;;;;;12.13;7.53;;;13.70;99.90;;;;;;5011142;28;20072;-79
2021/10/11 09:02:58;;;;;;;13.38;7.50;;;13.80;99.90;;;;;;5010242;28;20049;-79
2021/10/11 09:05:36;;;;;;;12.45;7.43;;;13.80;99.90;;;;;;5010369;28;20086;-79
2021/10/11 09:08:14;;;;;;;14.25;8.30;;;13.90;99.90;;;;;;5024194;28;20507;-79
2021/10/11 09:11:00;;;;;;;12.85;8.18;;;13.90;99.90;;;;;;5011216;28;20018;-80
2021/10/11 09:13:37;;;;;;;11.45;7.15;;;13.90;99.90;;;;;;5010385;28;20431;-79
2021/10/11 09:16:04;;;;;;;11.35;7.68;;;13.90;99.90;;;;;;5009768;28;20083;-79
2021/10/11 09:18:31;;;;;;;13.98;8.40;;;14.00;99.90;;;;;;5006999;28;20373;-79
2021/10/11 09:20:57;;;;;;;11.63;8.10;;;14.10;99.90;;;;;;5010861;28;20396;-79
2021/10/11 09:23:29;;;;;;;15.90;8.02;;;14.20;99.90;;;;;;5009611;28;20026;-79
2021/10/11 09:25:54;;;;;;;13.50;7.82;;;14.30;99.90;;;;;;5008713;28;20374;-79
2021/10/11 09:28:20;;;;;;;11.55;8.13;;;14.40;99.90;;;;;;5010806;28;20014;-79
2021/10/11 09:30:48;;;;;;;14.77;8.30;;;14.30;99.90;;;;;;5010859;28;20076;-79
2021/10/11 09:33:20;;;;;;;11.60;7.22;;;14.30;99.90;;;;;;5010801;28;20479;-79
2021/10/11 09:35:47;;;;;;;13.68;8.07;;;14.40;99.90;;;;;;5009249;28;20499;-79
2021/10/11 09:38:33;;;;;;;10.95;8.07;;;14.50;99.90;;;;;;5010880;28;20065;-79
2021/10/11 09:41:00;;;;;;;9.20;7.05;;;14.50;99.90;;;;;;5006684;28;20018;-79
2021/10/11 09:43:32;;;;;;;9.77;6.80;;;14.50;99.90;;;;;;5010644;28;20246;-79
2021/10/11 09:46:13;;;;;;;12.00;6.78;;;14.50;99.90;;;;;;5010469;28;20018;-79
2021/10/11 09:48:53;;;;;;;10.70;5.60;;;14.70;99.30;;;;;;5009497;28;20101;-79
2021/10/11 09:51:24;;;;;;;7.15;5.07;;;14.70;99.70;;;;;;5009006;28;20089;-79
2021/10/11 09:53:52;;;;;;;6.63;4.50;;;14.70;98.20;;;;;;5012117;28;20029;-79
2021/10/11 09:56:18;;;;;;;5.65;5.15;;;14.80;96.50;;;;;;5014345;28;20072;-79
2021/10/11 09:58:44;;;;;;;7.18;5.65;;;14.80;97.50;;;;;;5013937;28;20093;-79
2021/10/11 10:01:10;;;;;;;10.10;5.60;;;14.90;98.10;;;;;;5014079;28;20109;-79
2021/10/11 10:03:37;;;;;;;6.50;5.07;;;14.90;97.40;;;;;;5013778;28;20170;-79
2021/10/11 10:06:05;;;;;;;6.13;4.78;;;14.80;97.20;;;;;;5012723;28;20032;-79
2021/10/11 10:08:32;;;;;;;7.97;4.80;;;14.90;98.50;;;;;;5011057;28;20022;-79
2021/10/11 10:11:00;;;;;;;8.57;5.28;;;14.90;98.80;;;;;;5012636;28;20025;-79
2021/10/11 10:13:26;;;;;;;6.30;4.68;;;14.90;97.60;;;;;;5013742;28;20101;-79
2021/10/11 10:16:07;;;;;;;6.25;4.15;;;14.90;96.80;;;;;;5009796;28;20029;-79
2021/10/11 10:18:41;;;;;;;5.68;4.78;;;14.90;97.60;;;;;;5011394;28;20025;-79
2021/10/11 10:21:07;;;;;;;9.02;5.00;;;15.00;97.40;;;;;;5013696;28;20483;-79
2021/10/11 10:23:35;;;;;;;7.38;4.80;;;15.20;95.70;;;;;;5012324;28;20537;-79
2021/10/11 10:26:04;;;;;;;6.03;4.72;;;15.30;95.70;;;;;;5012439;28;20108;-79
2021/10/11 10:28:43;;;;;;;12.32;4.80;;;15.30;94.90;;;;;;5011971;28;20113;-79
2021/10/11 10:31:10;;;;;;;9.30;4.57;;;15.40;95.30;;;;;;5012174;28;20109;-79
2021/10/11 10:33:40;;;;;;;7.93;4.13;;;15.50;94.60;;;;;;5014034;28;20026;-79
2021/10/11 10:36:19;;;;;;;6.32;4.15;;;15.50;94.50;;;;;;5013997;28;20201;-79
2021/10/11 10:39:04;;;;;;;4.22;3.83;;;15.50;92.40;;;;;;5012307;28;20391;-79
2021/10/11 10:41:30;;;;;;;6.53;3.80;;;15.60;92.50;;;;;;5012389;28;20109;-79
2021/10/11 10:43:57;;;;;;;5.35;3.60;;;15.60;92.80;;;;;;5013576;28;20030;-79
2021/10/11 10:46:23;;;;;;;6.10;3.35;;;15.70;94.20;;;;;;5013355;28;20026;-79
2021/10/11 10:48:54;;;;;;;3.97;3.03;;;15.90;93.20;;;;;;5013066;28;20033;-79
2021/10/11 10:51:21;;;;;;;4.47;3.60;;;16.00;93.20;;;;;;5011896;28;20083;-79
2021/10/11 10:54:05;;;;;;;5.45;3.95;;;15.90;93.20;;;;;;5011586;28;20030;-79
2021/10/11 10:56:30;;;;;;;6.55;3.38;;;15.80;93.10;;;;;;5012877;28;20037;-79
2021/10/11 10:59:03;;;;;;;4.35;3.45;;;15.80;94.00;;;;;;5012224;28;20025;-79
2021/10/11 11:01:30;;;;;;;4.35;3.75;;;15.90;94.50;;;;;;5009415;28;20041;-79
2021/10/11 11:03:56;;;;;;;8.80;3.80;;;16.00;95.80;;;;;;5012327;28;20022;-79
2021/10/11 11:06:31;;;;;;;4.65;3.70;;;16.10;94.80;;;;;;5013103;28;20026;-79
2021/10/11 11:08:58;;;;;;;6.10;4.22;;;16.20;95.10;;;;;;5009778;28;20483;-79
2021/10/11 11:11:28;;;;;;;4.05;3.25;;;16.30;93.90;;;;;;5012844;28;20018;-79
2021/10/11 11:13:56;;;;;;;3.75;3.45;;;16.40;94.60;;;;;;5010117;28;20037;-79
2021/10/11 11:16:27;;;;;;;6.72;3.50;;;16.40;94.40;;;;;;5012634;28;20026;-79
2021/10/11 11:18:58;;;;;;;7.40;3.80;;;16.30;94.30;;;;;;5010186;28;20480;-79
2021/10/11 11:21:27;;;;;;;9.82;3.63;;;16.30;94.60;;;;;;5012986;28;20024;-79
2021/10/11 11:23:53;;;;;;;4.82;3.30;;;16.30;93.80;;;;;;5033437;28;20022;-79
2021/10/11 11:26:19;;;;;;;4.28;3.70;;;16.50;93.70;;;;;;5012827;28;20026;-79
2021/10/11 11:28:46;;;;;;;6.55;4.38;;;16.60;93.80;;;;;;5011156;28;20029;-79
2021/10/11 11:31:13;;;;;;;4.53;3.38;;;16.60;93.00;;;;;;5012333;28;20395;-79
2021/10/11 11:33:52;;;;;;;5.88;4.05;;;16.60;94.40;;;;;;5012483;28;20025;-79
2021/10/11 11:36:18;;;;;;;3.92;3.53;;;16.60;93.00;;;;;;5010175;28;20042;-79
2021/10/11 11:38:45;;;;;;;5.40;3.75;;;16.70;93.30;;;;;;5012631;28;20072;-79
2021/10/11 11:41:10;;;;;;;4.03;3.33;;;16.80;93.30;;;;;;5012354;28;20061;-79
2021/10/11 11:43:39;;;;;;;5.43;3.22;;;16.90;92.50;;;;;;5012225;28;20493;-79
2021/10/11 11:46:06;;;;;;;5.53;2.83;;;16.80;93.00;;;;;;5012279;28;20092;-79
2021/10/11 11:48:35;;;;;;;4.70;3.33;;;16.80;92.70;;;;;;5011939;28;20533;-79
2021/10/11 11:51:11;;;;;;;6.50;2.50;;;16.80;92.90;;;;;;5012039;28;20030;-79
2021/10/11 11:53:38;;;;;;;3.17;2.53;;;17.00;91.30;;;;;;5009668;28;20076;-79
2021/10/11 11:56:06;;;;;;;4.18;2.67;;;17.00;92.10;;;;;;5011916;28;20415;-79
2021/10/11 11:58:43;;;;;;;4.18;2.20;;;17.10;90.70;;;;;;5011771;28;20434;-79
2021/10/11 12:01:10;;;;;;;2.97;2.17;;;17.10;91.10;;;;;;5011822;28;20120;-79
2021/10/11 12:03:38;;;;;;;2.20;2.00;;;17.10;90.70;;;;;;5010451;28;20228;-79
2021/10/11 12:06:05;;;;;;;2.22;2.00;;;17.10;90.20;;;;;;5012232;28;20084;-79
2021/10/11 12:08:31;;;;;;;2.60;1.50;;;17.10;88.80;;;;;;5012179;28;20052;-79
2021/10/11 12:11:07;;;;;;;3.33;1.30;;;17.20;84.00;;;;;;5012234;28;20387;-79
2021/10/11 12:13:36;;;;;;;2.00;1.75;;;17.20;83.90;;;;;;5011779;28;20014;-79
2021/10/11 12:16:03;;;;;;;1.67;1.58;;;17.20;81.30;;;;;;5006931;28;20668;-79
2021/10/11 12:18:50;;;;;;;1.80;1.70;;;17.10;84.80;;;;;;5010342;28;20038;-79
2021/10/11 12:21:27;;;;;;;1.52;1.42;;;17.20;86.50;;;;;;5010893;28;20022;-79
2021/10/11 12:23:54;;;;;;;1.50;1.40;;;17.10;82.50;;;;;;5010247;28;20053;-79
2021/10/11 12:26:21;;;;;;;2.38;1.40;;;17.10;82.70;;;;;;5010218;28;20028;-79
2021/10/11 12:28:55;;;;;;;2.75;1.63;;;17.10;80.70;;;;;;5011321;28;20083;-79
2021/10/11 12:31:38;;;;;;;1.83;1.67;;;17.10;78.60;;;;;;5011849;28;20029;-79
2021/10/11 12:34:12;;;;;;;1.65;1.55;;;17.10;79.00;;;;;;5011769;28;20030;-79
2021/10/11 12:36:53;;;;;;;2.65;1.45;;;17.20;81.00;;;;;;5011755;28;20065;-79
2021/10/11 12:39:20;;;;;;;1.58;1.35;;;17.30;81.20;;;;;;5011925;28;20114;-79
2021/10/11 12:41:51;;;;;;;1.30;1.20;;;17.30;80.80;;;;;;5011812;28;20029;-79